sensor_id;sensor_type;location;lat;lon;timestamp;P1;durP1;ratioP1;P2;durP2;ratioP2
12042;SDS011;6082;49.306;12.862;2022-12-18T00:01:24;16.33;;;7.80;;
12042;SDS011;6082;49.306;12.862;2022-12-18T00:03:51;15.47;;;5.97;;
12042;SDS011;6082;49.306;12.862;2022-12-18T00:06:17;16.97;;;6.80;;
12042;SDS011;6082;49.306;12.862;2022-12-18T00:08:43;23.73;;;8.40;;
12042;SDS011;6082;49.306;12.862;2022-12-18T00:11:14;10.50;;;7.10;;
12042;SDS011;6082;49.306;12.862;2022-12-18T00:13:41;11.60;;;7.43;;
12042;SDS011;6082;49.306;12.862;2022-12-18T00:16:09;17.83;;;8.13;;
12042;SDS011;6082;49.306;12.862;2022-12-18T00:18:35;13.67;;;8.30;;
12042;SDS011;6082;49.306;12.862;2022-12-18T00:21:02;17.67;;;7.23;;
12042;SDS011;6082;49.306;12.862;2022-12-18T00:23:29;17.50;;;6.83;;
12042;SDS011;6082;49.306;12.862;2022-12-18T00:25:58;12.23;;;7.63;;
12042;SDS011;6082;49.306;12.862;2022-12-18T00:28:24;18.77;;;6.23;;
12042;SDS011;6082;49.306;12.862;2022-12-18T00:30:51;21.50;;;7.17;;
12042;SDS011;6082;49.306;12.862;2022-12-18T00:33:17;19.10;;;8.70;;
12042;SDS011;6082;49.306;12.862;2022-12-18T00:35:43;19.70;;;7.60;;
12042;SDS011;6082;49.306;12.862;2022-12-18T00:38:09;12.33;;;6.23;;
12042;SDS011;6082;49.306;12.862;2022-12-18T00:40:36;19.77;;;8.00;;
12042;SDS011;6082;49.306;12.862;2022-12-18T00:43:02;17.53;;;8.40;;
12042;SDS011;6082;49.306;12.862;2022-12-18T00:45:29;28.87;;;7.83;;
12042;SDS011;6082;49.306;12.862;2022-12-18T00:47:55;7.87;;;5.60;;
12042;SDS011;6082;49.306;12.862;2022-12-18T00:50:22;15.17;;;6.57;;
12042;SDS011;6082;49.306;12.862;2022-12-18T00:52:49;9.10;;;6.53;;
12042;SDS011;6082;49.306;12.862;2022-12-18T00:55:15;17.63;;;7.43;;
12042;SDS011;6082;49.306;12.862;2022-12-18T00:57:41;14.60;;;5.60;;
12042;SDS011;6082;49.306;12.862;2022-12-18T01:00:08;13.73;;;7.53;;
12042;SDS011;6082;49.306;12.862;2022-12-18T01:02:35;20.27;;;8.27;;
12042;SDS011;6082;49.306;12.862;2022-12-18T01:05:01;17.10;;;6.03;;
12042;SDS011;6082;49.306;12.862;2022-12-18T01:07:27;15.83;;;6.27;;
12042;SDS011;6082;49.306;12.862;2022-12-18T01:09:53;13.37;;;6.10;;
12042;SDS011;6082;49.306;12.862;2022-12-18T01:12:19;15.40;;;7.33;;
12042;SDS011;6082;49.306;12.862;2022-12-18T01:14:48;13.03;;;7.20;;
12042;SDS011;6082;49.306;12.862;2022-12-18T01:17:14;14.23;;;4.90;;
12042;SDS011;6082;49.306;12.862;2022-12-18T01:19:40;15.00;;;6.60;;
12042;SDS011;6082;49.306;12.862;2022-12-18T01:22:06;16.37;;;7.27;;
12042;SDS011;6082;49.306;12.862;2022-12-18T01:24:33;14.27;;;5.30;;
12042;SDS011;6082;49.306;12.862;2022-12-18T01:26:59;6.50;;;3.37;;
12042;SDS011;6082;49.306;12.862;2022-12-18T01:29:28;12.23;;;6.20;;
12042;SDS011;6082;49.306;12.862;2022-12-18T01:31:54;15.27;;;4.67;;
12042;SDS011;6082;49.306;12.862;2022-12-18T01:34:21;11.63;;;5.47;;
12042;SDS011;6082;49.306;12.862;2022-12-18T01:36:47;6.07;;;4.57;;
12042;SDS011;6082;49.306;12.862;2022-12-18T01:39:14;8.60;;;4.10;;
12042;SDS011;6082;49.306;12.862;2022-12-18T01:41:40;11.27;;;5.67;;
12042;SDS011;6082;49.306;12.862;2022-12-18T01:47:13;13.50;;;4.73;;
12042;SDS011;6082;49.306;12.862;2022-12-18T01:49:41;15.27;;;5.10;;
12042;SDS011;6082;49.306;12.862;2022-12-18T01:52:07;13.90;;;5.10;;
12042;SDS011;6082;49.306;12.862;2022-12-18T01:54:33;17.70;;;5.67;;
12042;SDS011;6082;49.306;12.862;2022-12-18T01:56:59;12.10;;;5.60;;
12042;SDS011;6082;49.306;12.862;2022-12-18T01:59:26;9.60;;;4.03;;
12042;SDS011;6082;49.306;12.862;2022-12-18T02:01:53;9.00;;;4.00;;
12042;SDS011;6082;49.306;12.862;2022-12-18T02:04:25;18.10;;;5.10;;
12042;SDS011;6082;49.306;12.862;2022-12-18T02:06:58;10.83;;;5.23;;
12042;SDS011;6082;49.306;12.862;2022-12-18T02:09:39;14.07;;;5.53;;
12042;SDS011;6082;49.306;12.862;2022-12-18T02:12:13;14.83;;;5.27;;
12042;SDS011;6082;49.306;12.862;2022-12-18T02:14:43;10.43;;;5.00;;
12042;SDS011;6082;49.306;12.862;2022-12-18T02:17:12;9.00;;;4.47;;
12042;SDS011;6082;49.306;12.862;2022-12-18T02:25:05;11.30;;;6.80;;
12042;SDS011;6082;49.306;12.862;2022-12-18T02:27:33;7.77;;;5.23;;
12042;SDS011;6082;49.306;12.862;2022-12-18T02:29:59;12.87;;;4.97;;
12042;SDS011;6082;49.306;12.862;2022-12-18T02:32:27;10.17;;;3.30;;
12042;SDS011;6082;49.306;12.862;2022-12-18T02:34:55;8.07;;;3.07;;
12042;SDS011;6082;49.306;12.862;2022-12-18T02:37:22;10.63;;;4.07;;
12042;SDS011;6082;49.306;12.862;2022-12-18T02:39:49;11.33;;;3.90;;
12042;SDS011;6082;49.306;12.862;2022-12-18T02:42:17;10.17;;;4.70;;
12042;SDS011;6082;49.306;12.862;2022-12-18T02:44:44;12.63;;;5.23;;
12042;SDS011;6082;49.306;12.862;2022-12-18T02:47:11;13.80;;;4.60;;
12042;SDS011;6082;49.306;12.862;2022-12-18T02:52:11;12.50;;;6.57;;
12042;SDS011;6082;49.306;12.862;2022-12-18T02:57:38;15.17;;;5.13;;
12042;SDS011;6082;49.306;12.862;2022-12-18T03:00:08;9.97;;;4.73;;
12042;SDS011;6082;49.306;12.862;2022-12-18T03:05:07;11.40;;;4.90;;
12042;SDS011;6082;49.306;12.862;2022-12-18T03:07:42;11.30;;;6.00;;
12042;SDS011;6082;49.306;12.862;2022-12-18T03:10:12;14.60;;;5.73;;
12042;SDS011;6082;49.306;12.862;2022-12-18T03:12:40;17.77;;;6.50;;
12042;SDS011;6082;49.306;12.862;2022-12-18T03:15:25;14.80;;;5.73;;
12042;SDS011;6082;49.306;12.862;2022-12-18T03:17:57;13.63;;;5.17;;
12042;SDS011;6082;49.306;12.862;2022-12-18T03:20:25;10.40;;;5.27;;
12042;SDS011;6082;49.306;12.862;2022-12-18T03:22:53;8.33;;;4.63;;
12042;SDS011;6082;49.306;12.862;2022-12-18T03:25:21;7.90;;;3.63;;
12042;SDS011;6082;49.306;12.862;2022-12-18T03:27:49;12.67;;;4.80;;
12042;SDS011;6082;49.306;12.862;2022-12-18T03:30:17;8.93;;;4.10;;
12042;SDS011;6082;49.306;12.862;2022-12-18T03:35:10;6.50;;;3.53;;
12042;SDS011;6082;49.306;12.862;2022-12-18T03:37:36;8.57;;;4.63;;
12042;SDS011;6082;49.306;12.862;2022-12-18T03:40:03;15.37;;;6.10;;
12042;SDS011;6082;49.306;12.862;2022-12-18T03:47:38;12.87;;;5.40;;
12042;SDS011;6082;49.306;12.862;2022-12-18T03:50:13;10.33;;;4.30;;
12042;SDS011;6082;49.306;12.862;2022-12-18T03:52:52;11.10;;;5.00;;
12042;SDS011;6082;49.306;12.862;2022-12-18T03:55:20;5.50;;;3.43;;
12042;SDS011;6082;49.306;12.862;2022-12-18T03:57:47;11.07;;;4.30;;
12042;SDS011;6082;49.306;12.862;2022-12-18T04:00:15;7.00;;;3.47;;
12042;SDS011;6082;49.306;12.862;2022-12-18T04:02:52;6.33;;;3.60;;
12042;SDS011;6082;49.306;12.862;2022-12-18T04:05:19;8.57;;;3.50;;
12042;SDS011;6082;49.306;12.862;2022-12-18T04:07:46;6.30;;;3.20;;
12042;SDS011;6082;49.306;12.862;2022-12-18T04:10:13;7.70;;;3.53;;
12042;SDS011;6082;49.306;12.862;2022-12-18T04:12:40;6.97;;;4.17;;
12042;SDS011;6082;49.306;12.862;2022-12-18T04:15:06;8.30;;;4.30;;
12042;SDS011;6082;49.306;12.862;2022-12-18T04:17:36;13.60;;;4.53;;
12042;SDS011;6082;49.306;12.862;2022-12-18T04:20:02;6.00;;;3.47;;
12042;SDS011;6082;49.306;12.862;2022-12-18T04:22:28;9.20;;;4.33;;
12042;SDS011;6082;49.306;12.862;2022-12-18T04:24:54;8.33;;;4.17;;
12042;SDS011;6082;49.306;12.862;2022-12-18T04:27:20;10.37;;;4.17;;
12042;SDS011;6082;49.306;12.862;2022-12-18T04:29:47;8.73;;;5.03;;
12042;SDS011;6082;49.306;12.862;2022-12-18T04:32:13;8.93;;;3.33;;
12042;SDS011;6082;49.306;12.862;2022-12-18T04:34:39;9.20;;;3.17;;
12042;SDS011;6082;49.306;12.862;2022-12-18T04:37:05;8.43;;;4.50;;
12042;SDS011;6082;49.306;12.862;2022-12-18T04:39:31;11.87;;;4.07;;
12042;SDS011;6082;49.306;12.862;2022-12-18T04:42:00;9.97;;;5.27;;
12042;SDS011;6082;49.306;12.862;2022-12-18T04:44:27;7.30;;;3.57;;
12042;SDS011;6082;49.306;12.862;2022-12-18T04:46:53;12.90;;;4.63;;
12042;SDS011;6082;49.306;12.862;2022-12-18T04:49:26;9.83;;;4.43;;
12042;SDS011;6082;49.306;12.862;2022-12-18T04:51:52;10.43;;;3.47;;
12042;SDS011;6082;49.306;12.862;2022-12-18T04:54:21;15.33;;;4.37;;
12042;SDS011;6082;49.306;12.862;2022-12-18T04:56:47;9.70;;;4.90;;
12042;SDS011;6082;49.306;12.862;2022-12-18T04:59:13;11.10;;;4.83;;
12042;SDS011;6082;49.306;12.862;2022-12-18T05:01:39;11.57;;;4.83;;
12042;SDS011;6082;49.306;12.862;2022-12-18T05:04:05;11.50;;;4.70;;
12042;SDS011;6082;49.306;12.862;2022-12-18T05:06:31;5.33;;;3.60;;
12042;SDS011;6082;49.306;12.862;2022-12-18T05:08:58;11.97;;;3.73;;
12042;SDS011;6082;49.306;12.862;2022-12-18T05:11:24;14.23;;;4.60;;
12042;SDS011;6082;49.306;12.862;2022-12-18T05:13:50;5.73;;;2.80;;
12042;SDS011;6082;49.306;12.862;2022-12-18T05:16:16;8.47;;;3.73;;
12042;SDS011;6082;49.306;12.862;2022-12-18T05:18:42;7.37;;;3.40;;
12042;SDS011;6082;49.306;12.862;2022-12-18T05:21:08;12.17;;;6.30;;
12042;SDS011;6082;49.306;12.862;2022-12-18T05:23:35;5.50;;;4.03;;
12042;SDS011;6082;49.306;12.862;2022-12-18T05:26:03;8.20;;;4.40;;
12042;SDS011;6082;49.306;12.862;2022-12-18T05:28:30;8.60;;;5.00;;
12042;SDS011;6082;49.306;12.862;2022-12-18T05:30:57;9.77;;;3.97;;
12042;SDS011;6082;49.306;12.862;2022-12-18T05:33:24;7.00;;;4.27;;
12042;SDS011;6082;49.306;12.862;2022-12-18T05:35:51;13.70;;;5.97;;
12042;SDS011;6082;49.306;12.862;2022-12-18T05:38:18;9.53;;;4.20;;
12042;SDS011;6082;49.306;12.862;2022-12-18T05:40:44;15.30;;;4.03;;
12042;SDS011;6082;49.306;12.862;2022-12-18T05:43:10;6.63;;;3.73;;
12042;SDS011;6082;49.306;12.862;2022-12-18T05:45:39;6.30;;;3.50;;
12042;SDS011;6082;49.306;12.862;2022-12-18T05:48:06;9.90;;;3.30;;
12042;SDS011;6082;49.306;12.862;2022-12-18T05:50:35;5.43;;;4.20;;
12042;SDS011;6082;49.306;12.862;2022-12-18T05:53:02;7.63;;;4.20;;
12042;SDS011;6082;49.306;12.862;2022-12-18T05:55:28;9.07;;;4.97;;
12042;SDS011;6082;49.306;12.862;2022-12-18T05:57:54;9.23;;;3.67;;
12042;SDS011;6082;49.306;12.862;2022-12-18T06:00:20;10.37;;;4.17;;
12042;SDS011;6082;49.306;12.862;2022-12-18T06:02:47;7.87;;;4.50;;
12042;SDS011;6082;49.306;12.862;2022-12-18T06:05:13;11.60;;;3.10;;
12042;SDS011;6082;49.306;12.862;2022-12-18T06:07:42;9.33;;;3.50;;
12042;SDS011;6082;49.306;12.862;2022-12-18T06:10:08;12.53;;;4.93;;
12042;SDS011;6082;49.306;12.862;2022-12-18T06:12:34;5.17;;;3.10;;
12042;SDS011;6082;49.306;12.862;2022-12-18T06:15:01;6.30;;;2.43;;
12042;SDS011;6082;49.306;12.862;2022-12-18T06:17:28;6.63;;;4.27;;
12042;SDS011;6082;49.306;12.862;2022-12-18T06:19:54;3.83;;;2.53;;
12042;SDS011;6082;49.306;12.862;2022-12-18T06:22:20;10.90;;;4.80;;
12042;SDS011;6082;49.306;12.862;2022-12-18T06:24:46;13.27;;;3.33;;
12042;SDS011;6082;49.306;12.862;2022-12-18T06:27:13;9.03;;;3.60;;
12042;SDS011;6082;49.306;12.862;2022-12-18T06:29:39;10.00;;;4.33;;
12042;SDS011;6082;49.306;12.862;2022-12-18T06:32:08;6.20;;;2.53;;
12042;SDS011;6082;49.306;12.862;2022-12-18T06:34:34;14.23;;;4.17;;
12042;SDS011;6082;49.306;12.862;2022-12-18T06:37:02;6.70;;;3.23;;
12042;SDS011;6082;49.306;12.862;2022-12-18T06:39:28;4.80;;;3.20;;
12042;SDS011;6082;49.306;12.862;2022-12-18T06:41:55;9.30;;;2.97;;
12042;SDS011;6082;49.306;12.862;2022-12-18T06:44:21;7.73;;;3.13;;
12042;SDS011;6082;49.306;12.862;2022-12-18T06:46:47;9.93;;;3.80;;
12042;SDS011;6082;49.306;12.862;2022-12-18T06:49:13;10.00;;;3.63;;
12042;SDS011;6082;49.306;12.862;2022-12-18T06:51:41;10.53;;;3.17;;
12042;SDS011;6082;49.306;12.862;2022-12-18T06:54:07;7.83;;;3.33;;
12042;SDS011;6082;49.306;12.862;2022-12-18T06:56:33;8.80;;;3.30;;
12042;SDS011;6082;49.306;12.862;2022-12-18T06:58:59;4.47;;;3.37;;
12042;SDS011;6082;49.306;12.862;2022-12-18T07:01:26;4.67;;;3.03;;
12042;SDS011;6082;49.306;12.862;2022-12-18T07:03:53;6.13;;;2.20;;
12042;SDS011;6082;49.306;12.862;2022-12-18T07:06:20;6.80;;;3.80;;
12042;SDS011;6082;49.306;12.862;2022-12-18T07:08:50;5.97;;;3.80;;
12042;SDS011;6082;49.306;12.862;2022-12-18T07:11:17;16.07;;;8.17;;
12042;SDS011;6082;49.306;12.862;2022-12-18T07:13:43;17.07;;;4.33;;
12042;SDS011;6082;49.306;12.862;2022-12-18T07:16:17;22.10;;;5.77;;
12042;SDS011;6082;49.306;12.862;2022-12-18T07:18:43;9.60;;;4.63;;
12042;SDS011;6082;49.306;12.862;2022-12-18T07:21:10;5.20;;;3.33;;
12042;SDS011;6082;49.306;12.862;2022-12-18T07:23:37;14.77;;;3.87;;
12042;SDS011;6082;49.306;12.862;2022-12-18T07:26:07;5.63;;;2.90;;
12042;SDS011;6082;49.306;12.862;2022-12-18T07:28:34;4.17;;;3.37;;
12042;SDS011;6082;49.306;12.862;2022-12-18T07:31:05;9.13;;;3.30;;
12042;SDS011;6082;49.306;12.862;2022-12-18T07:33:32;9.53;;;2.40;;
12042;SDS011;6082;49.306;12.862;2022-12-18T07:35:59;8.27;;;4.03;;
12042;SDS011;6082;49.306;12.862;2022-12-18T07:38:25;11.90;;;6.20;;
12042;SDS011;6082;49.306;12.862;2022-12-18T07:40:51;16.90;;;5.50;;
12042;SDS011;6082;49.306;12.862;2022-12-18T07:43:17;5.83;;;3.10;;
12042;SDS011;6082;49.306;12.862;2022-12-18T07:45:43;5.37;;;2.83;;
12042;SDS011;6082;49.306;12.862;2022-12-18T07:48:10;7.10;;;3.10;;
12042;SDS011;6082;49.306;12.862;2022-12-18T07:50:36;3.57;;;2.13;;
12042;SDS011;6082;49.306;12.862;2022-12-18T07:53:02;9.57;;;3.50;;
12042;SDS011;6082;49.306;12.862;2022-12-18T07:55:30;6.53;;;3.33;;
12042;SDS011;6082;49.306;12.862;2022-12-18T07:57:56;7.10;;;3.60;;
12042;SDS011;6082;49.306;12.862;2022-12-18T08:00:22;19.27;;;4.80;;
12042;SDS011;6082;49.306;12.862;2022-12-18T08:02:48;6.63;;;3.43;;
12042;SDS011;6082;49.306;12.862;2022-12-18T08:05:14;9.53;;;4.77;;
12042;SDS011;6082;49.306;12.862;2022-12-18T08:07:41;10.97;;;4.07;;
12042;SDS011;6082;49.306;12.862;2022-12-18T08:10:07;21.67;;;5.40;;
12042;SDS011;6082;49.306;12.862;2022-12-18T08:12:33;6.50;;;3.80;;
12042;SDS011;6082;49.306;12.862;2022-12-18T08:14:59;5.67;;;2.60;;
12042;SDS011;6082;49.306;12.862;2022-12-18T08:17:26;4.70;;;2.77;;
12042;SDS011;6082;49.306;12.862;2022-12-18T08:19:52;10.67;;;3.67;;
12042;SDS011;6082;49.306;12.862;2022-12-18T08:22:18;5.80;;;3.37;;
12042;SDS011;6082;49.306;12.862;2022-12-18T08:24:45;9.07;;;4.10;;
12042;SDS011;6082;49.306;12.862;2022-12-18T08:27:11;6.80;;;3.40;;
12042;SDS011;6082;49.306;12.862;2022-12-18T08:29:37;8.47;;;3.73;;
12042;SDS011;6082;49.306;12.862;2022-12-18T08:32:03;7.40;;;3.43;;
12042;SDS011;6082;49.306;12.862;2022-12-18T08:34:29;5.23;;;2.90;;
12042;SDS011;6082;49.306;12.862;2022-12-18T08:36:55;8.23;;;4.63;;
12042;SDS011;6082;49.306;12.862;2022-12-18T08:39:21;7.57;;;2.47;;
12042;SDS011;6082;49.306;12.862;2022-12-18T08:41:48;7.73;;;4.23;;
12042;SDS011;6082;49.306;12.862;2022-12-18T08:44:34;12.30;;;4.17;;
12042;SDS011;6082;49.306;12.862;2022-12-18T08:47:03;4.73;;;3.63;;
12042;SDS011;6082;49.306;12.862;2022-12-18T08:49:29;6.40;;;3.17;;
12042;SDS011;6082;49.306;12.862;2022-12-18T08:51:55;9.97;;;4.67;;
12042;SDS011;6082;49.306;12.862;2022-12-18T08:54:25;6.80;;;3.13;;
12042;SDS011;6082;49.306;12.862;2022-12-18T08:56:51;11.00;;;3.93;;
12042;SDS011;6082;49.306;12.862;2022-12-18T08:59:17;4.13;;;2.67;;
12042;SDS011;6082;49.306;12.862;2022-12-18T09:01:43;11.77;;;4.60;;
12042;SDS011;6082;49.306;12.862;2022-12-18T09:04:09;3.73;;;3.27;;
12042;SDS011;6082;49.306;12.862;2022-12-18T09:06:36;5.10;;;2.67;;
12042;SDS011;6082;49.306;12.862;2022-12-18T09:09:02;2.40;;;1.50;;
12042;SDS011;6082;49.306;12.862;2022-12-18T09:11:29;9.80;;;3.47;;
12042;SDS011;6082;49.306;12.862;2022-12-18T09:13:55;2.90;;;2.10;;
12042;SDS011;6082;49.306;12.862;2022-12-18T09:16:22;1.60;;;1.50;;
12042;SDS011;6082;49.306;12.862;2022-12-18T09:18:48;5.93;;;3.03;;
12042;SDS011;6082;49.306;12.862;2022-12-18T09:21:15;3.33;;;2.53;;
12042;SDS011;6082;49.306;12.862;2022-12-18T09:23:42;8.60;;;3.30;;
12042;SDS011;6082;49.306;12.862;2022-12-18T09:26:11;8.57;;;2.47;;
12042;SDS011;6082;49.306;12.862;2022-12-18T09:28:37;9.83;;;3.27;;
12042;SDS011;6082;49.306;12.862;2022-12-18T09:31:04;15.07;;;3.67;;
12042;SDS011;6082;49.306;12.862;2022-12-18T09:33:31;6.27;;;3.57;;
12042;SDS011;6082;49.306;12.862;2022-12-18T09:35:58;8.23;;;3.20;;
12042;SDS011;6082;49.306;12.862;2022-12-18T09:38:26;11.33;;;4.70;;
12042;SDS011;6082;49.306;12.862;2022-12-18T09:40:53;8.73;;;3.67;;
12042;SDS011;6082;49.306;12.862;2022-12-18T09:43:25;4.50;;;3.67;;
12042;SDS011;6082;49.306;12.862;2022-12-18T09:45:53;9.87;;;4.60;;
12042;SDS011;6082;49.306;12.862;2022-12-18T09:48:54;6.33;;;4.73;;
12042;SDS011;6082;49.306;12.862;2022-12-18T09:51:15;14.27;;;4.10;;
12042;SDS011;6082;49.306;12.862;2022-12-18T09:53:58;13.23;;;5.53;;
12042;SDS011;6082;49.306;12.862;2022-12-18T09:56:25;6.80;;;4.60;;
12042;SDS011;6082;49.306;12.862;2022-12-18T09:58:58;13.77;;;6.33;;
12042;SDS011;6082;49.306;12.862;2022-12-18T10:01:25;8.40;;;3.73;;
12042;SDS011;6082;49.306;12.862;2022-12-18T10:03:52;10.83;;;5.20;;
12042;SDS011;6082;49.306;12.862;2022-12-18T10:24:32;4.47;;;3.50;;
12042;SDS011;6082;49.306;12.862;2022-12-18T10:27:35;12.10;;;6.03;;
12042;SDS011;6082;49.306;12.862;2022-12-18T10:29:54;9.77;;;4.20;;
12042;SDS011;6082;49.306;12.862;2022-12-18T10:32:22;6.83;;;4.20;;
12042;SDS011;6082;49.306;12.862;2022-12-18T10:34:50;6.30;;;4.03;;
12042;SDS011;6082;49.306;12.862;2022-12-18T10:37:18;8.40;;;2.00;;
12042;SDS011;6082;49.306;12.862;2022-12-18T10:39:45;4.07;;;3.13;;
12042;SDS011;6082;49.306;12.862;2022-12-18T10:42:16;4.17;;;2.77;;
12042;SDS011;6082;49.306;12.862;2022-12-18T10:44:42;5.40;;;3.17;;
12042;SDS011;6082;49.306;12.862;2022-12-18T10:47:11;19.97;;;5.73;;
12042;SDS011;6082;49.306;12.862;2022-12-18T10:49:37;11.17;;;4.33;;
12042;SDS011;6082;49.306;12.862;2022-12-18T10:52:15;4.47;;;2.70;;
12042;SDS011;6082;49.306;12.862;2022-12-18T10:54:50;5.30;;;3.13;;
12042;SDS011;6082;49.306;12.862;2022-12-18T10:57:27;4.17;;;3.33;;
12042;SDS011;6082;49.306;12.862;2022-12-18T10:59:56;6.20;;;4.77;;
12042;SDS011;6082;49.306;12.862;2022-12-18T11:02:35;8.53;;;4.10;;
12042;SDS011;6082;49.306;12.862;2022-12-18T11:05:02;3.87;;;3.00;;
12042;SDS011;6082;49.306;12.862;2022-12-18T11:07:46;10.93;;;4.07;;
12042;SDS011;6082;49.306;12.862;2022-12-18T11:10:15;3.90;;;2.90;;
12042;SDS011;6082;49.306;12.862;2022-12-18T11:12:42;9.30;;;4.53;;
12042;SDS011;6082;49.306;12.862;2022-12-18T11:15:15;6.27;;;4.70;;
12042;SDS011;6082;49.306;12.862;2022-12-18T11:17:42;5.10;;;3.73;;
12042;SDS011;6082;49.306;12.862;2022-12-18T11:20:23;3.97;;;2.40;;
12042;SDS011;6082;49.306;12.862;2022-12-18T11:23:01;4.97;;;2.60;;
12042;SDS011;6082;49.306;12.862;2022-12-18T11:25:28;9.90;;;3.60;;
12042;SDS011;6082;49.306;12.862;2022-12-18T11:27:59;4.33;;;3.10;;
12042;SDS011;6082;49.306;12.862;2022-12-18T11:32:53;4.87;;;3.27;;
12042;SDS011;6082;49.306;12.862;2022-12-18T11:35:37;3.40;;;3.03;;
12042;SDS011;6082;49.306;12.862;2022-12-18T11:38:06;4.30;;;3.50;;
12042;SDS011;6082;49.306;12.862;2022-12-18T11:40:36;6.43;;;3.47;;
12042;SDS011;6082;49.306;12.862;2022-12-18T11:43:09;7.07;;;4.17;;
12042;SDS011;6082;49.306;12.862;2022-12-18T11:45:45;6.67;;;2.70;;
12042;SDS011;6082;49.306;12.862;2022-12-18T11:50:58;7.67;;;4.00;;
12042;SDS011;6082;49.306;12.862;2022-12-18T11:53:25;5.00;;;3.67;;
12042;SDS011;6082;49.306;12.862;2022-12-18T12:06:09;2.70;;;2.40;;
12042;SDS011;6082;49.306;12.862;2022-12-18T12:11:27;9.43;;;4.07;;
12042;SDS011;6082;49.306;12.862;2022-12-18T12:32:45;6.77;;;2.47;;
12042;SDS011;6082;49.306;12.862;2022-12-18T12:40:34;5.00;;;2.77;;
12042;SDS011;6082;49.306;12.862;2022-12-18T12:43:14;4.20;;;2.97;;
12042;SDS011;6082;49.306;12.862;2022-12-18T12:53:48;6.43;;;3.80;;
12042;SDS011;6082;49.306;12.862;2022-12-18T12:56:15;9.40;;;4.40;;
12042;SDS011;6082;49.306;12.862;2022-12-18T12:58:46;2.83;;;2.63;;
12042;SDS011;6082;49.306;12.862;2022-12-18T13:03:56;3.87;;;3.27;;
12042;SDS011;6082;49.306;12.862;2022-12-18T13:14:34;5.13;;;3.93;;
12042;SDS011;6082;49.306;12.862;2022-12-18T13:17:14;5.17;;;2.30;;
12042;SDS011;6082;49.306;12.862;2022-12-18T13:19:40;4.97;;;2.60;;
12042;SDS011;6082;49.306;12.862;2022-12-18T13:22:19;2.97;;;2.00;;
12042;SDS011;6082;49.306;12.862;2022-12-18T13:24:47;2.67;;;2.20;;
12042;SDS011;6082;49.306;12.862;2022-12-18T13:29:58;2.23;;;2.03;;
12042;SDS011;6082;49.306;12.862;2022-12-18T13:32:24;5.20;;;2.70;;
12042;SDS011;6082;49.306;12.862;2022-12-18T13:35:36;2.37;;;2.17;;
12042;SDS011;6082;49.306;12.862;2022-12-18T13:37:52;8.10;;;5.70;;
12042;SDS011;6082;49.306;12.862;2022-12-18T13:40:52;15.07;;;5.43;;
12042;SDS011;6082;49.306;12.862;2022-12-18T13:43:30;10.33;;;4.73;;
12042;SDS011;6082;49.306;12.862;2022-12-18T13:48:30;3.73;;;3.43;;
12042;SDS011;6082;49.306;12.862;2022-12-18T13:53:42;10.90;;;4.90;;
12042;SDS011;6082;49.306;12.862;2022-12-18T13:56:22;6.17;;;4.23;;
12042;SDS011;6082;49.306;12.862;2022-12-18T14:01:33;16.77;;;5.03;;
12042;SDS011;6082;49.306;12.862;2022-12-18T14:04:16;12.87;;;6.53;;
12042;SDS011;6082;49.306;12.862;2022-12-18T14:06:43;8.73;;;3.50;;
12042;SDS011;6082;49.306;12.862;2022-12-18T14:09:13;7.57;;;4.17;;
12042;SDS011;6082;49.306;12.862;2022-12-18T14:11:39;4.93;;;3.67;;
12042;SDS011;6082;49.306;12.862;2022-12-18T14:14:06;7.03;;;4.63;;
12042;SDS011;6082;49.306;12.862;2022-12-18T14:16:32;17.30;;;5.90;;
12042;SDS011;6082;49.306;12.862;2022-12-18T14:18:59;7.27;;;4.87;;
12042;SDS011;6082;49.306;12.862;2022-12-18T14:21:26;10.60;;;5.20;;
12042;SDS011;6082;49.306;12.862;2022-12-18T14:24:03;17.27;;;5.90;;
12042;SDS011;6082;49.306;12.862;2022-12-18T14:26:30;17.40;;;5.87;;
12042;SDS011;6082;49.306;12.862;2022-12-18T14:28:58;11.37;;;5.47;;
12042;SDS011;6082;49.306;12.862;2022-12-18T14:31:27;11.23;;;4.57;;
12042;SDS011;6082;49.306;12.862;2022-12-18T14:33:54;17.33;;;4.40;;
12042;SDS011;6082;49.306;12.862;2022-12-18T14:36:24;12.37;;;4.83;;
12042;SDS011;6082;49.306;12.862;2022-12-18T14:38:51;5.93;;;3.10;;
12042;SDS011;6082;49.306;12.862;2022-12-18T14:41:19;7.43;;;4.13;;
12042;SDS011;6082;49.306;12.862;2022-12-18T14:43:47;10.93;;;5.93;;
12042;SDS011;6082;49.306;12.862;2022-12-18T14:48:58;7.23;;;5.40;;
12042;SDS011;6082;49.306;12.862;2022-12-18T14:51:31;13.10;;;4.43;;
12042;SDS011;6082;49.306;12.862;2022-12-18T14:54:12;14.40;;;5.67;;
12042;SDS011;6082;49.306;12.862;2022-12-18T14:56:44;10.73;;;5.33;;
12042;SDS011;6082;49.306;12.862;2022-12-18T14:59:13;13.33;;;5.73;;
12042;SDS011;6082;49.306;12.862;2022-12-18T15:02:01;11.13;;;5.73;;
12042;SDS011;6082;49.306;12.862;2022-12-18T15:09:37;12.07;;;5.57;;
12042;SDS011;6082;49.306;12.862;2022-12-18T15:12:03;9.97;;;3.73;;
12042;SDS011;6082;49.306;12.862;2022-12-18T15:16:57;10.47;;;4.07;;
12042;SDS011;6082;49.306;12.862;2022-12-18T15:19:28;6.83;;;4.40;;
12042;SDS011;6082;49.306;12.862;2022-12-18T15:21:58;13.20;;;5.90;;
12042;SDS011;6082;49.306;12.862;2022-12-18T15:24:29;8.90;;;5.37;;
12042;SDS011;6082;49.306;12.862;2022-12-18T15:26:56;7.50;;;5.10;;
12042;SDS011;6082;49.306;12.862;2022-12-18T15:29:23;14.50;;;5.60;;
12042;SDS011;6082;49.306;12.862;2022-12-18T15:32:04;6.10;;;4.47;;
12042;SDS011;6082;49.306;12.862;2022-12-18T15:34:31;9.97;;;4.10;;
12042;SDS011;6082;49.306;12.862;2022-12-18T15:36:59;12.17;;;6.87;;
12042;SDS011;6082;49.306;12.862;2022-12-18T15:39:25;10.10;;;4.43;;
12042;SDS011;6082;49.306;12.862;2022-12-18T15:41:51;13.63;;;6.93;;
12042;SDS011;6082;49.306;12.862;2022-12-18T15:44:39;9.27;;;5.63;;
12042;SDS011;6082;49.306;12.862;2022-12-18T15:47:09;8.67;;;4.53;;
12042;SDS011;6082;49.306;12.862;2022-12-18T15:49:36;9.57;;;5.13;;
12042;SDS011;6082;49.306;12.862;2022-12-18T15:52:02;8.90;;;3.87;;
12042;SDS011;6082;49.306;12.862;2022-12-18T15:54:28;13.50;;;5.87;;
12042;SDS011;6082;49.306;12.862;2022-12-18T15:57:13;15.33;;;5.63;;
12042;SDS011;6082;49.306;12.862;2022-12-18T15:59:48;14.40;;;5.33;;
12042;SDS011;6082;49.306;12.862;2022-12-18T16:02:16;14.23;;;4.83;;
12042;SDS011;6082;49.306;12.862;2022-12-18T16:04:46;11.57;;;5.90;;
12042;SDS011;6082;49.306;12.862;2022-12-18T16:07:12;7.57;;;4.73;;
12042;SDS011;6082;49.306;12.862;2022-12-18T16:09:38;10.90;;;4.77;;
12042;SDS011;6082;49.306;12.862;2022-12-18T16:12:23;15.53;;;5.67;;
12042;SDS011;6082;49.306;12.862;2022-12-18T16:14:53;16.83;;;5.90;;
12042;SDS011;6082;49.306;12.862;2022-12-18T16:17:19;8.43;;;4.73;;
12042;SDS011;6082;49.306;12.862;2022-12-18T16:19:45;16.50;;;5.67;;
12042;SDS011;6082;49.306;12.862;2022-12-18T16:22:22;20.00;;;7.00;;
12042;SDS011;6082;49.306;12.862;2022-12-18T16:24:48;12.17;;;4.90;;
12042;SDS011;6082;49.306;12.862;2022-12-18T16:27:15;12.80;;;5.00;;
12042;SDS011;6082;49.306;12.862;2022-12-18T16:29:41;12.47;;;5.97;;
12042;SDS011;6082;49.306;12.862;2022-12-18T16:32:08;12.93;;;6.63;;
12042;SDS011;6082;49.306;12.862;2022-12-18T16:34:37;16.23;;;5.17;;
12042;SDS011;6082;49.306;12.862;2022-12-18T16:37:04;11.67;;;4.63;;
12042;SDS011;6082;49.306;12.862;2022-12-18T16:39:30;12.60;;;5.40;;
12042;SDS011;6082;49.306;12.862;2022-12-18T16:41:58;11.77;;;4.37;;
12042;SDS011;6082;49.306;12.862;2022-12-18T16:44:24;13.20;;;6.13;;
12042;SDS011;6082;49.306;12.862;2022-12-18T16:46:50;14.30;;;5.17;;
12042;SDS011;6082;49.306;12.862;2022-12-18T16:49:17;8.13;;;6.80;;
12042;SDS011;6082;49.306;12.862;2022-12-18T16:51:43;11.30;;;5.63;;
12042;SDS011;6082;49.306;12.862;2022-12-18T16:54:11;10.23;;;4.50;;